Time;durP1;ratioP1;P1;durP2;ratioP2;P2;SDS_P1;SDS_P2;PMS_P1;PMS_P2;Temp;Humidity;BMP_temperature;BMP_pressure;BME280_temperature;BME280_humidity;BME280_pressure;Samples;Min_cycle;Max_cycle;Signal;HPM_P1;HPM_P2
2022/11/16 00:01:51;;;;;;;;;;;;;;;;;;4994802;28;19921;-63
2022/11/16 00:04:19;;;;;;;;;;;;;;;;;;4982036;28;19917;-62
2022/11/16 00:06:47;;;;;;;;;;;;;;;;;;4965577;28;20281;-62
2022/11/16 00:09:21;;;;;;;;;;;;;;;;;;4976305;28;19921;-63
2022/11/16 00:11:50;;;;;;;;;;;;;;;;;;4960794;28;19925;-63
2022/11/16 00:14:15;;;;;;;;;;;;;;;;;;4979744;28;19921;-63
2022/11/16 00:16:41;;;;;;;;;;;;;;;;;;5001176;28;19916;-62
2022/11/16 00:19:06;;;;;;;;;;;;;;;;;;4996226;28;19929;-63
2022/11/16 00:21:31;;;;;;;;;;;;;;;;;;4979928;28;19928;-62
2022/11/16 00:23:56;;;;;;;;;;;;;;;;;;4977684;28;19917;-63
2022/11/16 00:26:22;;;;;;;;;;;;;;;;;;4977330;28;19929;-63
2022/11/16 00:28:48;;;;;;;;;;;;;;;;;;5001887;28;19921;-63
2022/11/16 00:31:14;;;;;;;;;;;;;;;;;;4981779;28;19940;-63
2022/11/16 00:33:42;;;;;;;;;;;;;;;;;;4992851;28;19922;-63
2022/11/16 00:36:07;;;;;;;;;;;;;;;;;;5001678;28;19924;-63
2022/11/16 00:38:33;;;;;;;;;;;;;;;;;;4978439;28;19921;-64
2022/11/16 00:40:58;;;;;;;;;;;;;;;;;;4994076;28;20288;-63
2022/11/16 00:43:26;;;;;;;;;;;;;;;;;;4963345;28;20277;-64
2022/11/16 00:45:51;;;;;;;;;;;;;;;;;;4978305;28;19925;-63
2022/11/16 00:48:19;;;;;;;;;;;;;;;;;;4962669;28;19997;-60
2022/11/16 00:50:44;;;;;;;;;;;;;;;;;;4978039;28;19968;-62
2022/11/16 00:53:12;;;;;;;;;;;;;;;;;;4981843;28;20399;-62
2022/11/16 00:55:37;;;;;;;;;;;;;;;;;;4998087;28;19921;-62
2022/11/16 00:58:03;;;;;;;;;;;;;;;;;;4979755;28;20012;-62
2022/11/16 01:00:29;;;;;;;;;;;;;;;;;;4981892;28;19921;-62
2022/11/16 01:02:54;;;;;;;;;;;;;;;;;;4982511;28;19982;-61
2022/11/16 01:05:20;;;;;;;;;;;;;;;;;;5001862;28;20527;-62
2022/11/16 01:07:46;;;;;;;;;;;;;;;;;;4971915;28;19926;-63
2022/11/16 01:10:11;;;;;;;;;;;;;;;;;;4985088;28;19980;-62
2022/11/16 01:12:43;;;;;;;;;;;;;;;;;;4984101;28;19929;-62
2022/11/16 01:15:11;;;;;;;;;;;;;;;;;;4983982;28;19986;-62
2022/11/16 01:17:37;;;;;;;;;;;;;;;;;;4988061;28;19921;-62
2022/11/16 01:20:02;;;;;;;;;;;;;;;;;;4968317;28;19940;-62
2022/11/16 01:22:30;;;;;;;;;;;;;;;;;;4976552;28;19917;-62
2022/11/16 01:24:56;;;;;;;;;;;;;;;;;;4982926;28;19921;-62
2022/11/16 01:27:26;;;;;;;;;;;;;;;;;;4965348;28;19974;-61
2022/11/16 01:29:52;;;;;;;;;;;;;;;;;;5002892;28;20406;-62
2022/11/16 01:32:17;;;;;;;;;;;;;;;;;;4985589;28;19975;-62
2022/11/16 01:34:42;;;;;;;;;;;;;;;;;;4999549;28;19971;-62
2022/11/16 01:37:10;;;;;;;;;;;;;;;;;;5003266;28;20057;-63
2022/11/16 01:39:38;;;;;;;;;;;;;;;;;;4997822;28;19921;-63
2022/11/16 01:42:04;;;;;;;;;;;;;;;;;;4996998;28;20213;-61
2022/11/16 01:44:32;;;;;;;;;;;;;;;;;;5001664;28;22296;-61
2022/11/16 01:46:58;;;;;;;;;;;;;;;;;;4999058;28;20306;-59
2022/11/16 01:49:23;;;;;;;;;;;;;;;;;;4982025;28;20898;-61
2022/11/16 01:51:51;;;;;;;;;;;;;;;;;;4983008;28;19936;-62
2022/11/16 01:54:16;;;;;;;;;;;;;;;;;;4982037;28;20291;-62
2022/11/16 01:56:41;;;;;;;;;;;;;;;;;;5003629;28;19921;-63
2022/11/16 01:59:06;;;;;;;;;;;;;;;;;;4966656;28;20635;-62
2022/11/16 02:01:32;;;;;;;;;;;;;;;;;;4985507;28;19929;-62
2022/11/16 02:03:59;;;;;;;;;;;;;;;;;;4981206;28;20555;-63
2022/11/16 02:06:25;;;;;;;;;;;;;;;;;;4981686;28;19933;-63
2022/11/16 02:11:34;;;;;;;;;;;;;;;;;;4995230;28;19976;-62
2022/11/16 02:13:59;;;;;;;;;;;;;;;;;;5000567;28;19955;-63
2022/11/16 02:16:25;;;;;;;;;;;;;;;;;;4982865;28;19932;-63
2022/11/16 02:18:52;;;;;;;;;;;;;;;;;;5001101;28;19925;-64
2022/11/16 02:21:20;;;;;;;;;;;;;;;;;;4998582;28;19921;-63
2022/11/16 02:23:45;;;;;;;;;;;;;;;;;;5002276;28;19932;-62
2022/11/16 02:26:11;;;;;;;;;;;;;;;;;;5001873;28;19925;-62
2022/11/16 02:28:38;;;;;;;;;;;;;;;;;;4980923;28;19960;-63
2022/11/16 02:31:04;;;;;;;;;;;;;;;;;;4969043;28;19921;-63
2022/11/16 02:33:34;;;;;;;;;;;;;;;;;;4978205;28;19921;-63
2022/11/16 02:35:59;;;;;;;;;;;;;;;;;;4997867;28;19956;-63
2022/11/16 02:38:27;;;;;;;;;;;;;;;;;;4978175;28;21452;-62
2022/11/16 02:40:53;;;;;;;;;;;;;;;;;;4996285;28;19954;-63
2022/11/16 02:43:20;;;;;;;;;;;;;;;;;;4999101;28;19990;-63
2022/11/16 02:45:45;;;;;;;;;;;;;;;;;;4981079;28;19925;-61
2022/11/16 02:48:10;;;;;;;;;;;;;;;;;;4996213;28;19921;-62
2022/11/16 02:50:35;;;;;;;;;;;;;;;;;;5000087;28;20049;-64
2022/11/16 02:53:03;;;;;;;;;;;;;;;;;;4977063;28;20602;-66
2022/11/16 02:55:30;;;;;;;;;;;;;;;;;;4980131;28;19960;-64
2022/11/16 02:57:58;;;;;;;;;;;;;;;;;;4998596;28;20395;-66
2022/11/16 03:00:23;;;;;;;;;;;;;;;;;;4976184;28;19921;-65
2022/11/16 03:02:49;;;;;;;;;;;;;;;;;;4974984;28;19960;-65
2022/11/16 03:05:14;;;;;;;;;;;;;;;;;;4968681;28;19948;-65
2022/11/16 03:07:39;;;;;;;;;;;;;;;;;;4974212;28;20006;-65
2022/11/16 03:10:05;;;;;;;;;;;;;;;;;;4976321;28;19968;-63
2022/11/16 03:12:30;;;;;;;;;;;;;;;;;;4977051;28;19921;-65
2022/11/16 03:14:55;;;;;;;;;;;;;;;;;;4977868;28;20388;-63
2022/11/16 03:17:23;;;;;;;;;;;;;;;;;;4997026;28;20024;-65
2022/11/16 03:19:51;;;;;;;;;;;;;;;;;;4959798;28;19928;-64
2022/11/16 03:22:16;;;;;;;;;;;;;;;;;;4977868;28;19925;-61
2022/11/16 03:24:41;;;;;;;;;;;;;;;;;;4973484;28;20047;-65
2022/11/16 03:27:07;;;;;;;;;;;;;;;;;;4975786;28;20023;-66
2022/11/16 03:29:32;;;;;;;;;;;;;;;;;;4961746;28;19940;-64
2022/11/16 03:32:00;;;;;;;;;;;;;;;;;;4960099;28;19971;-63
2022/11/16 03:34:28;;;;;;;;;;;;;;;;;;4974330;28;19937;-64
2022/11/16 03:36:55;;;;;;;;;;;;;;;;;;4962671;28;19921;-63
2022/11/16 03:39:23;;;;;;;;;;;;;;;;;;4971863;28;20651;-65
2022/11/16 03:41:48;;;;;;;;;;;;;;;;;;4992688;28;19920;-64
2022/11/16 03:44:14;;;;;;;;;;;;;;;;;;4994133;28;20509;-63
2022/11/16 03:46:41;;;;;;;;;;;;;;;;;;4974451;28;20343;-64
2022/11/16 03:49:07;;;;;;;;;;;;;;;;;;4995891;28;20042;-64
2022/11/16 03:51:37;;;;;;;;;;;;;;;;;;4974777;28;20016;-62
2022/11/16 03:54:05;;;;;;;;;;;;;;;;;;4978504;28;20504;-65
2022/11/16 03:56:30;;;;;;;;;;;;;;;;;;4998357;28;19917;-64
2022/11/16 03:58:55;;;;;;;;;;;;;;;;;;4975659;28;20861;-64
2022/11/16 04:01:23;;;;;;;;;;;;;;;;;;4958517;28;20039;-61
2022/11/16 04:03:49;;;;;;;;;;;;;;;;;;4978400;28;19923;-61
2022/11/16 04:25:30;;;;;;;;;;;;;;;;;;4990500;28;19959;-66
2022/11/16 04:28:13;;;;;;;;;;;;;;;;;;4994175;28;19933;-63
2022/11/16 04:38:53;;;;;;;;;;;;;;;;;;4991942;28;20455;-64
2022/11/16 04:44:03;;;;;;;;;;;;;;;;;;4995577;28;19980;-63
2022/11/16 04:49:15;;;;;;;;;;;;;;;;;;4977100;28;19921;-64
2022/11/16 04:51:40;;;;;;;;;;;;;;;;;;4981231;28;20308;-62
2022/11/16 04:54:08;;;;;;;;;;;;;;;;;;4969109;28;19917;-62
2022/11/16 04:56:33;;;;;;;;;;;;;;;;;;4983786;28;20286;-62
2022/11/16 04:58:58;;;;;;;;;;;;;;;;;;4978324;28;20011;-64
2022/11/16 05:04:10;;;;;;;;;;;;;;;;;;4978648;28;20613;-63
2022/11/16 05:06:36;;;;;;;;;;;;;;;;;;4996193;28;19929;-63
2022/11/16 05:09:01;;;;;;;;;;;;;;;;;;4997796;28;20575;-61
2022/11/16 05:11:26;;;;;;;;;;;;;;;;;;4991665;28;19921;-63
2022/11/16 05:13:51;;;;;;;;;;;;;;;;;;4974615;28;20990;-62
2022/11/16 05:16:20;;;;;;;;;;;;;;;;;;4977806;28;19939;-62
2022/11/16 05:20:59;;;;;;;;;;;;;;;;;;4999595;28;19948;-63
2022/11/16 05:21:35;;;;;;;;;;;;;;;;;;4994172;28;19921;-63
2022/11/16 05:26:47;;;;;;;;;;;;;;;;;;4994029;28;19940;-63
2022/11/16 05:29:12;;;;;;;;;;;;;;;;;;4997663;28;19917;-64
2022/11/16 05:31:38;;;;;;;;;;;;;;;;;;4994801;28;22275;-64
2022/11/16 05:34:03;;;;;;;;;;;;;;;;;;4978594;28;20365;-65
2022/11/16 05:36:31;;;;;;;;;;;;;;;;;;4997773;28;20529;-64
2022/11/16 05:39:01;;;;;;;;;;;;;;;;;;5003122;28;19920;-65
2022/11/16 05:41:28;;;;;;;;;;;;;;;;;;5004131;28;20063;-64
2022/11/16 05:43:54;;;;;;;;;;;;;;;;;;4969428;28;19929;-64
2022/11/16 05:46:19;;;;;;;;;;;;;;;;;;4983325;28;20323;-64
2022/11/16 05:48:45;;;;;;;;;;;;;;;;;;4972857;28;20015;-63
2022/11/16 05:51:10;;;;;;;;;;;;;;;;;;4998891;28;19923;-63
2022/11/16 05:53:36;;;;;;;;;;;;;;;;;;5001279;28;20748;-63
2022/11/16 05:56:04;;;;;;;;;;;;;;;;;;4976222;28;19930;-63
2022/11/16 05:58:31;;;;;;;;;;;;;;;;;;4981865;28;20529;-64
2022/11/16 06:00:57;;;;;;;;;;;;;;;;;;5002842;28;19956;-63
2022/11/16 06:03:26;;;;;;;;;;;;;;;;;;4968148;28;19921;-63
2022/11/16 06:05:52;;;;;;;;;;;;;;;;;;4970626;28;19933;-64
2022/11/16 06:08:19;;;;;;;;;;;;;;;;;;4997578;28;19932;-62
2022/11/16 06:10:45;;;;;;;;;;;;;;;;;;4965816;28;21476;-63
2022/11/16 06:13:10;;;;;;;;;;;;;;;;;;4970429;28;19951;-65
2022/11/16 06:15:37;;;;;;;;;;;;;;;;;;4982827;28;19946;-65
2022/11/16 06:18:05;;;;;;;;;;;;;;;;;;4989468;28;19925;-66
2022/11/16 06:20:30;;;;;;;;;;;;;;;;;;4985368;28;19931;-64
2022/11/16 06:22:58;;;;;;;;;;;;;;;;;;4985070;28;19925;-63
2022/11/16 06:25:24;;;;;;;;;;;;;;;;;;4983065;28;19924;-63
2022/11/16 06:27:51;;;;;;;;;;;;;;;;;;4984237;28;19949;-66
2022/11/16 06:30:17;;;;;;;;;;;;;;;;;;4969068;28;20011;-63
2022/11/16 06:32:43;;;;;;;;;;;;;;;;;;4971506;28;20471;-65
2022/11/16 06:35:08;;;;;;;;;;;;;;;;;;5004542;28;20216;-66
2022/11/16 06:37:34;;;;;;;;;;;;;;;;;;4969465;28;19925;-66
2022/11/16 06:40:01;;;;;;;;;;;;;;;;;;4984944;28;21500;-64
2022/11/16 06:42:27;;;;;;;;;;;;;;;;;;5002652;28;19929;-64
2022/11/16 06:44:52;;;;;;;;;;;;;;;;;;4981364;28;20873;-64
2022/11/16 06:47:20;;;;;;;;;;;;;;;;;;4980861;28;19956;-63
2022/11/16 06:49:46;;;;;;;;;;;;;;;;;;5005946;28;20002;-63
2022/11/16 06:52:11;;;;;;;;;;;;;;;;;;4966900;28;20455;-65
2022/11/16 06:54:39;;;;;;;;;;;;;;;;;;4983939;28;21080;-65
2022/11/16 06:57:05;;;;;;;;;;;;;;;;;;4983107;28;20280;-65
2022/11/16 06:59:30;;;;;;;;;;;;;;;;;;4978031;28;20458;-65
2022/11/16 07:01:57;;;;;;;;;;;;;;;;;;5002557;28;19921;-65
2022/11/16 07:04:23;;;;;;;;;;;;;;;;;;4997617;28;19971;-65
2022/11/16 07:06:51;;;;;;;;;;;;;;;;;;5000558;28;20058;-65
2022/11/16 07:09:19;;;;;;;;;;;;;;;;;;4982962;28;20376;-64
2022/11/16 07:11:44;;;;;;;;;;;;;;;;;;4965752;28;19940;-64
2022/11/16 07:14:11;;;;;;;;;;;;;;;;;;5002123;28;19921;-65
2022/11/16 07:16:36;;;;;;;;;;;;;;;;;;4969221;28;19928;-65
2022/11/16 07:19:01;;;;;;;;;;;;;;;;;;5001449;28;19921;-65
2022/11/16 07:21:26;;;;;;;;;;;;;;;;;;4984954;28;20400;-65
2022/11/16 07:23:52;;;;;;;;;;;;;;;;;;4985081;28;20119;-65
2022/11/16 07:26:19;;;;;;;;;;;;;;;;;;4963606;28;20031;-65
2022/11/16 07:28:47;;;;;;;;;;;;;;;;;;4983021;28;19925;-65
2022/11/16 07:31:13;;;;;;;;;;;;;;;;;;4980528;28;20373;-65
2022/11/16 07:33:40;;;;;;;;;;;;;;;;;;4969803;28;20283;-64
2022/11/16 07:36:06;;;;;;;;;;;;;;;;;;5002639;28;19921;-65
2022/11/16 07:38:31;;;;;;;;;;;;;;;;;;5002422;28;19974;-63
2022/11/16 07:40:56;;;;;;;;;;;;;;;;;;4983232;28;19971;-63
2022/11/16 07:43:25;;;;;;;;;;;;;;;;;;5001852;28;19922;-62
2022/11/16 07:45:53;;;;;;;;;;;;;;;;;;4982791;28;20291;-64
2022/11/16 07:48:18;;;;;;;;;;;;;;;;;;4983945;28;19963;-63
2022/11/16 07:50:47;;;;;;;;;;;;;;;;;;4986210;28;20352;-64
2022/11/16 07:53:12;;;;;;;;;;;;;;;;;;4980670;28;20149;-63
2022/11/16 07:55:37;;;;;;;;;;;;;;;;;;4984171;28;19929;-64
2022/11/16 07:58:03;;;;;;;;;;;;;;;;;;5002130;28;19917;-64
2022/11/16 08:00:30;;;;;;;;;;;;;;;;;;5001030;28;19921;-63
2022/11/16 08:02:56;;;;;;;;;;;;;;;;;;4984180;28;19994;-64
2022/11/16 08:05:21;;;;;;;;;;;;;;;;;;4964099;28;20121;-63
2022/11/16 08:07:46;;;;;;;;;;;;;;;;;;4984212;28;20631;-64
2022/11/16 08:10:12;;;;;;;;;;;;;;;;;;4980631;28;19921;-64
2022/11/16 08:12:38;;;;;;;;;;;;;;;;;;5001796;28;20420;-64
2022/11/16 08:15:03;;;;;;;;;;;;;;;;;;4985286;28;19984;-64
2022/11/16 08:17:28;;;;;;;;;;;;;;;;;;4983101;28;19921;-63
2022/11/16 08:19:53;;;;;;;;;;;;;;;;;;5003451;28;19929;-64
2022/11/16 08:22:19;;;;;;;;;;;;;;;;;;4999637;28;20028;-64
2022/11/16 08:24:44;;;;;;;;;;;;;;;;;;5000308;28;19921;-64
2022/11/16 08:27:10;;;;;;;;;;;;;;;;;;4978463;28;19956;-64
2022/11/16 08:29:37;;;;;;;;;;;;;;;;;;4982563;28;19932;-64
2022/11/16 08:32:02;;;;;;;;;;;;;;;;;;4981815;28;19921;-64
2022/11/16 08:34:27;;;;;;;;;;;;;;;;;;4966437;28;20074;-64
2022/11/16 08:36:53;;;;;;;;;;;;;;;;;;5000855;28;19964;-63
2022/11/16 08:39:18;;;;;;;;;;;;;;;;;;5001288;28;20068;-63
2022/11/16 08:41:46;;;;;;;;;;;;;;;;;;5002632;28;19963;-63
2022/11/16 08:44:13;;;;;;;;;;;;;;;;;;4981797;28;20293;-64
2022/11/16 08:46:41;;;;;;;;;;;;;;;;;;4983782;28;20364;-64
2022/11/16 08:49:08;;;;;;;;;;;;;;;;;;4980975;28;21066;-63
2022/11/16 08:51:36;;;;;;;;;;;;;;;;;;4998842;28;19972;-63
2022/11/16 08:54:02;;;;;;;;;;;;;;;;;;5002031;28;19925;-63
2022/11/16 08:56:29;;;;;;;;;;;;;;;;;;4980428;28;20386;-64
2022/11/16 08:58:54;;;;;;;;;;;;;;;;;;5002380;28;19933;-64
2022/11/16 09:01:20;;;;;;;;;;;;;;;;;;5002756;28;19917;-64
2022/11/16 09:03:45;;;;;;;;;;;;;;;;;;4963064;28;21139;-64
2022/11/16 09:06:10;;;;;;;;;;;;;;;;;;4981192;28;19925;-64
2022/11/16 09:08:36;;;;;;;;;;;;;;;;;;4982189;28;19921;-65
2022/11/16 09:11:01;;;;;;;;;;;;;;;;;;4981416;28;19921;-65
2022/11/16 09:13:27;;;;;;;;;;;;;;;;;;4978888;28;20049;-64
2022/11/16 09:15:52;;;;;;;;;;;;;;;;;;4983315;28;19948;-65
2022/11/16 09:18:17;;;;;;;;;;;;;;;;;;4982036;28;19967;-65
2022/11/16 09:20:44;;;;;;;;;;;;;;;;;;5000295;28;19925;-65
2022/11/16 09:23:09;;;;;;;;;;;;;;;;;;4977066;28;19971;-64
2022/11/16 09:25:38;;;;;;;;;;;;;;;;;;4986505;28;19929;-64
2022/11/16 09:28:03;;;;;;;;;;;;;;;;;;4982567;28;19940;-65
2022/11/16 09:30:29;;;;;;;;;;;;;;;;;;5002656;28;21741;-64
2022/11/16 09:32:54;;;;;;;;;;;;;;;;;;4984882;28;20384;-65
2022/11/16 09:35:22;;;;;;;;;;;;;;;;;;4986423;28;19917;-65
2022/11/16 09:37:50;;;;;;;;;;;;;;;;;;5000635;28;20211;-66
2022/11/16 09:40:16;;;;;;;;;;;;;;;;;;5002057;28;19964;-66
2022/11/16 09:42:42;;;;;;;;;;;;;;;;;;5002755;28;20040;-65
2022/11/16 09:45:09;;;;;;;;;;;;;;;;;;4987045;28;19924;-65
2022/11/16 09:47:35;;;;;;;;;;;;;;;;;;5002209;28;19925;-65
2022/11/16 09:50:01;;;;;;;;;;;;;;;;;;4965976;28;19921;-65
2022/11/16 09:52:31;;;;;;;;;;;;;;;;;;4985404;28;20022;-65
2022/11/16 09:54:56;;;;;;;;;;;;;;;;;;5003500;28;20464;-65
2022/11/16 09:57:24;;;;;;;;;;;;;;;;;;4985834;28;19924;-64
2022/11/16 09:59:51;;;;;;;;;;;;;;;;;;5004059;28;19943;-65
2022/11/16 10:02:17;;;;;;;;;;;;;;;;;;4987123;28;20321;-65
2022/11/16 10:04:45;;;;;;;;;;;;;;;;;;5004443;28;19997;-64
2022/11/16 10:07:11;;;;;;;;;;;;;;;;;;4984355;28;19921;-65
2022/11/16 10:09:36;;;;;;;;;;;;;;;;;;4985215;28;19975;-65
2022/11/16 10:12:04;;;;;;;;;;;;;;;;;;5001259;28;19928;-65
2022/11/16 10:14:31;;;;;;;;;;;;;;;;;;4986346;28;19979;-63
2022/11/16 10:16:57;;;;;;;;;;;;;;;;;;5004691;28;19921;-64
2022/11/16 10:19:22;;;;;;;;;;;;;;;;;;4997597;28;20327;-64
2022/11/16 10:21:47;;;;;;;;;;;;;;;;;;4989105;28;19921;-64
2022/11/16 10:24:17;;;;;;;;;;;;;;;;;;5003559;28;20559;-63
2022/11/16 10:26:42;;;;;;;;;;;;;;;;;;4981409;28;20097;-63
2022/11/16 10:29:10;;;;;;;;;;;;;;;;;;4984132;28;20392;-64
2022/11/16 10:31:38;;;;;;;;;;;;;;;;;;5003759;28;20071;-64
2022/11/16 10:34:03;;;;;;;;;;;;;;;;;;4966779;28;20402;-64
2022/11/16 10:36:32;;;;;;;;;;;;;;;;;;4979739;28;20456;-65
2022/11/16 10:38:57;;;;;;;;;;;;;;;;;;4997561;28;19925;-64
2022/11/16 10:41:23;;;;;;;;;;;;;;;;;;4987136;28;19921;-63
2022/11/16 10:43:48;;;;;;;;;;;;;;;;;;5001670;28;19921;-64
2022/11/16 10:46:14;;;;;;;;;;;;;;;;;;4985569;28;19940;-64
2022/11/16 10:48:42;;;;;;;;;;;;;;;;;;4982001;28;19990;-64
2022/11/16 10:51:10;;;;;;;;;;;;;;;;;;5002878;28;19986;-64
2022/11/16 10:53:35;;;;;;;;;;;;;;;;;;5002690;28;19921;-64
2022/11/16 10:56:01;;;;;;;;;;;;;;;;;;4980391;28;19925;-64
2022/11/16 10:58:30;;;;;;;;;;;;;;;;;;5002045;28;19921;-63
2022/11/16 11:00:57;;;;;;;;;;;;;;;;;;4986881;28;20371;-64
2022/11/16 11:03:26;;;;;;;;;;;;;;;;;;4986188;28;19925;-62
2022/11/16 11:05:53;;;;;;;;;;;;;;;;;;4969954;28;20051;-63
2022/11/16 11:08:19;;;;;;;;;;;;;;;;;;4996164;28;20044;-64
2022/11/16 11:10:47;;;;;;;;;;;;;;;;;;4987694;28;20445;-64
2022/11/16 11:13:12;;;;;;;;;;;;;;;;;;5001213;28;19971;-65
2022/11/16 11:15:38;;;;;;;;;;;;;;;;;;5001244;28;20135;-64
2022/11/16 11:18:05;;;;;;;;;;;;;;;;;;4983503;28;20012;-65
2022/11/16 11:20:31;;;;;;;;;;;;;;;;;;4981901;28;19940;-65
2022/11/16 11:22:56;;;;;;;;;;;;;;;;;;5000249;28;19921;-65
2022/11/16 11:25:22;;;;;;;;;;;;;;;;;;5004563;28;19932;-65
2022/11/16 11:27:52;;;;;;;;;;;;;;;;;;4964641;28;21431;-65
2022/11/16 11:30:18;;;;;;;;;;;;;;;;;;5002936;28;19932;-65
2022/11/16 11:32:43;;;;;;;;;;;;;;;;;;4979855;28;19953;-65
2022/11/16 11:35:11;;;;;;;;;;;;;;;;;;4998382;28;19921;-64
2022/11/16 11:37:38;;;;;;;;;;;;;;;;;;5004519;28;19921;-65
2022/11/16 11:40:06;;;;;;;;;;;;;;;;;;4999898;28;20006;-65
2022/11/16 11:42:31;;;;;;;;;;;;;;;;;;5002372;28;19921;-65
2022/11/16 11:44:58;;;;;;;;;;;;;;;;;;5000709;28;19932;-65
2022/11/16 11:47:23;;;;;;;;;;;;;;;;;;4981100;28;19929;-65
2022/11/16 11:49:49;;;;;;;;;;;;;;;;;;4980856;28;20470;-65
2022/11/16 11:52:16;;;;;;;;;;;;;;;;;;4983186;28;19924;-65
2022/11/16 11:54:42;;;;;;;;;;;;;;;;;;4984008;28;20370;-65
2022/11/16 11:57:07;;;;;;;;;;;;;;;;;;4984119;28;20019;-64
2022/11/16 11:59:33;;;;;;;;;;;;;;;;;;4984028;28;19921;-64
2022/11/16 12:02:01;;;;;;;;;;;;;;;;;;5004456;28;19921;-65
2022/11/16 12:04:27;;;;;;;;;;;;;;;;;;4981276;28;19928;-65
2022/11/16 12:06:52;;;;;;;;;;;;;;;;;;5002365;28;20406;-66
2022/11/16 12:09:21;;;;;;;;;;;;;;;;;;5001482;28;19974;-66
2022/11/16 12:11:47;;;;;;;;;;;;;;;;;;5001047;28;20007;-65
2022/11/16 12:14:14;;;;;;;;;;;;;;;;;;4978735;28;19933;-66
2022/11/16 12:16:39;;;;;;;;;;;;;;;;;;4980590;28;20200;-66
2022/11/16 12:19:05;;;;;;;;;;;;;;;;;;4978821;28;19921;-66
2022/11/16 12:21:30;;;;;;;;;;;;;;;;;;4984547;28;19921;-65
2022/11/16 12:23:55;;;;;;;;;;;;;;;;;;4979840;28;19971;-64
2022/11/16 12:26:20;;;;;;;;;;;;;;;;;;4985217;28;19929;-65
2022/11/16 12:28:46;;;;;;;;;;;;;;;;;;4999015;28;19923;-65
2022/11/16 12:31:12;;;;;;;;;;;;;;;;;;4981778;28;19965;-63
2022/11/16 12:33:39;;;;;;;;;;;;;;;;;;4999857;28;19998;-64
2022/11/16 12:36:07;;;;;;;;;;;;;;;;;;4979060;28;20225;-63
2022/11/16 12:38:32;;;;;;;;;;;;;;;;;;4999929;28;19970;-63
2022/11/16 12:40:57;;;;;;;;;;;;;;;;;;4982593;28;19955;-64
2022/11/16 12:43:25;;;;;;;;;;;;;;;;;;4964903;28;19925;-64
2022/11/16 12:45:53;;;;;;;;;;;;;;;;;;5001858;28;19925;-63
2022/11/16 12:48:20;;;;;;;;;;;;;;;;;;4967177;28;20264;-64
2022/11/16 12:50:46;;;;;;;;;;;;;;;;;;4999822;28;19927;-64
2022/11/16 12:53:11;;;;;;;;;;;;;;;;;;4965870;28;20308;-63
2022/11/16 12:55:39;;;;;;;;;;;;;;;;;;5003330;28;19925;-66
2022/11/16 12:58:05;;;;;;;;;;;;;;;;;;4981320;28;19921;-66
2022/11/16 13:00:33;;;;;;;;;;;;;;;;;;4987652;28;19917;-65
2022/11/16 13:02:58;;;;;;;;;;;;;;;;;;4985784;28;20018;-65
2022/11/16 13:05:24;;;;;;;;;;;;;;;;;;4967591;28;19928;-65
2022/11/16 13:07:49;;;;;;;;;;;;;;;;;;4972959;28;19982;-64
2022/11/16 13:10:14;;;;;;;;;;;;;;;;;;4984161;28;19925;-65
2022/11/16 13:12:43;;;;;;;;;;;;;;;;;;5005786;28;19946;-65
2022/11/16 13:15:08;;;;;;;;;;;;;;;;;;4987037;28;20438;-65
2022/11/16 13:17:33;;;;;;;;;;;;;;;;;;4968364;28;19921;-66
2022/11/16 13:19:59;;;;;;;;;;;;;;;;;;5002454;28;20474;-66
2022/11/16 13:22:24;;;;;;;;;;;;;;;;;;4986560;28;21824;-64
2022/11/16 13:24:49;;;;;;;;;;;;;;;;;;4986261;28;20339;-65
2022/11/16 13:27:15;;;;;;;;;;;;;;;;;;4985489;28;20355;-63
2022/11/16 13:29:40;;;;;;;;;;;;;;;;;;4969920;28;20082;-62
2022/11/16 13:32:06;;;;;;;;;;;;;;;;;;4987040;28;19992;-63
2022/11/16 13:34:31;;;;;;;;;;;;;;;;;;4970975;28;20019;-64
2022/11/16 13:36:59;;;;;;;;;;;;;;;;;;4987508;28;19921;-61
2022/11/16 13:39:26;;;;;;;;;;;;;;;;;;5001251;28;20242;-64
2022/11/16 13:41:55;;;;;;;;;;;;;;;;;;4968402;28;20059;-64
2022/11/16 13:44:23;;;;;;;;;;;;;;;;;;5004874;28;20326;-64
2022/11/16 13:46:50;;;;;;;;;;;;;;;;;;5005453;28;19925;-64
2022/11/16 13:49:16;;;;;;;;;;;;;;;;;;5003123;28;19923;-66
2022/11/16 13:51:41;;;;;;;;;;;;;;;;;;4988101;28;19928;-64
2022/11/16 13:54:06;;;;;;;;;;;;;;;;;;5000475;28;19924;-65
2022/11/16 13:56:32;;;;;;;;;;;;;;;;;;4983192;28;19929;-64
2022/11/16 13:59:00;;;;;;;;;;;;;;;;;;5005406;28;19944;-64
2022/11/16 14:01:25;;;;;;;;;;;;;;;;;;4986465;28;20458;-63
2022/11/16 14:03:53;;;;;;;;;;;;;;;;;;5000112;28;20380;-64
2022/11/16 14:06:18;;;;;;;;;;;;;;;;;;4986565;28;20415;-66
2022/11/16 14:08:44;;;;;;;;;;;;;;;;;;4982559;28;19925;-64
2022/11/16 14:11:09;;;;;;;;;;;;;;;;;;4985227;28;20279;-66
2022/11/16 14:13:34;;;;;;;;;;;;;;;;;;4968674;28;20337;-63
2022/11/16 14:16:18;;;;;;;;;;;;;;;;;;4968473;28;19931;-64
2022/11/16 14:18:43;;;;;;;;;;;;;;;;;;5004662;28;19925;-64
2022/11/16 14:21:11;;;;;;;;;;;;;;;;;;5000873;28;22241;-64
2022/11/16 14:23:39;;;;;;;;;;;;;;;;;;5001213;28;20671;-64
2022/11/16 14:26:07;;;;;;;;;;;;;;;;;;4981185;28;19933;-64
2022/11/16 14:28:35;;;;;;;;;;;;;;;;;;4982413;28;19917;-63
2022/11/16 14:31:01;;;;;;;;;;;;;;;;;;5005709;28;19928;-64
2022/11/16 14:33:27;;;;;;;;;;;;;;;;;;5002678;28;21400;-64
2022/11/16 14:35:52;;;;;;;;;;;;;;;;;;4985092;28;19917;-63
2022/11/16 14:38:18;;;;;;;;;;;;;;;;;;4964212;28;20007;-65
2022/11/16 14:40:45;;;;;;;;;;;;;;;;;;5004821;28;20558;-65
2022/11/16 14:43:13;;;;;;;;;;;;;;;;;;5001843;28;19964;-66
2022/11/16 14:45:38;;;;;;;;;;;;;;;;;;4966085;28;19943;-64
2022/11/16 14:48:03;;;;;;;;;;;;;;;;;;4968685;28;21605;-64
2022/11/16 14:50:30;;;;;;;;;;;;;;;;;;4984623;28;20007;-65
2022/11/16 14:52:58;;;;;;;;;;;;;;;;;;4982638;28;20855;-65
2022/11/16 14:55:26;;;;;;;;;;;;;;;;;;4982634;28;20455;-64
2022/11/16 14:57:54;;;;;;;;;;;;;;;;;;5002447;28;20563;-65
2022/11/16 15:03:35;;;;;;;;;;;;;;;;;;5001798;28;19928;-64
2022/11/16 15:06:03;;;;;;;;;;;;;;;;;;4981432;28;19925;-64
2022/11/16 15:08:28;;;;;;;;;;;;;;;;;;4982760;28;20439;-64
2022/11/16 15:10:56;;;;;;;;;;;;;;;;;;5001233;28;19921;-64
2022/11/16 15:13:24;;;;;;;;;;;;;;;;;;4968029;28;20513;-63
2022/11/16 15:15:51;;;;;;;;;;;;;;;;;;5001878;28;19921;-65
2022/11/16 15:18:16;;;;;;;;;;;;;;;;;;4985535;28;20612;-64
2022/11/16 15:20:42;;;;;;;;;;;;;;;;;;4983857;28;19925;-64
2022/11/16 15:23:10;;;;;;;;;;;;;;;;;;4984660;28;20640;-64
2022/11/16 15:25:37;;;;;;;;;;;;;;;;;;4985634;28;19917;-64
2022/11/16 15:28:03;;;;;;;;;;;;;;;;;;4967905;28;20308;-64
2022/11/16 15:30:32;;;;;;;;;;;;;;;;;;4965238;28;19917;-64
2022/11/16 15:32:57;;;;;;;;;;;;;;;;;;4971178;28;19925;-64
2022/11/16 15:35:25;;;;;;;;;;;;;;;;;;4998357;28;20346;-65
2022/11/16 15:37:52;;;;;;;;;;;;;;;;;;4998248;28;19925;-65
2022/11/16 15:40:20;;;;;;;;;;;;;;;;;;5003988;28;20447;-64
2022/11/16 15:42:45;;;;;;;;;;;;;;;;;;4981663;28;19928;-65
2022/11/16 15:45:11;;;;;;;;;;;;;;;;;;4969615;28;20280;-65
2022/11/16 15:47:38;;;;;;;;;;;;;;;;;;4961739;28;20920;-65
2022/11/16 15:50:06;;;;;;;;;;;;;;;;;;4981975;28;20148;-65
2022/11/16 15:52:34;;;;;;;;;;;;;;;;;;4998890;28;19921;-65
2022/11/16 15:55:05;;;;;;;;;;;;;;;;;;4980430;28;20022;-65
2022/11/16 15:57:33;;;;;;;;;;;;;;;;;;5002492;28;19917;-65
2022/11/16 15:59:58;;;;;;;;;;;;;;;;;;4965515;28;20451;-64
2022/11/16 16:02:23;;;;;;;;;;;;;;;;;;4982893;28;21490;-65
2022/11/16 16:04:49;;;;;;;;;;;;;;;;;;4983105;28;20063;-64
2022/11/16 16:07:14;;;;;;;;;;;;;;;;;;4980199;28;19972;-64
2022/11/16 16:09:39;;;;;;;;;;;;;;;;;;4978771;28;19943;-64
2022/11/16 16:12:04;;;;;;;;;;;;;;;;;;5001873;28;20256;-65
2022/11/16 16:14:30;;;;;;;;;;;;;;;;;;4984600;28;20388;-65
2022/11/16 16:16:58;;;;;;;;;;;;;;;;;;4981730;28;19932;-65
2022/11/16 16:19:24;;;;;;;;;;;;;;;;;;4980108;28;20434;-65
2022/11/16 16:21:52;;;;;;;;;;;;;;;;;;4980974;28;19917;-66
2022/11/16 16:24:22;;;;;;;;;;;;;;;;;;4964835;28;19921;-66
2022/11/16 16:26:50;;;;;;;;;;;;;;;;;;4980990;28;19933;-64
2022/11/16 16:29:16;;;;;;;;;;;;;;;;;;5003662;28;19924;-67
2022/11/16 16:31:44;;;;;;;;;;;;;;;;;;4983751;28;19956;-64
2022/11/16 16:34:09;;;;;;;;;;;;;;;;;;4984099;28;19960;-64
2022/11/16 16:36:39;;;;;;;;;;;;;;;;;;4998787;28;20561;-65
2022/11/16 16:39:04;;;;;;;;;;;;;;;;;;4980423;28;19924;-65
2022/11/16 16:41:29;;;;;;;;;;;;;;;;;;4983140;28;19921;-66
2022/11/16 16:43:57;;;;;;;;;;;;;;;;;;4980854;28;20256;-66
2022/11/16 16:46:25;;;;;;;;;;;;;;;;;;5005333;28;19921;-65
2022/11/16 16:48:55;;;;;;;;;;;;;;;;;;4998361;28;20302;-66
2022/11/16 16:51:25;;;;;;;;;;;;;;;;;;4981640;28;19975;-65
2022/11/16 16:53:51;;;;;;;;;;;;;;;;;;5001450;28;19928;-65
2022/11/16 16:56:18;;;;;;;;;;;;;;;;;;4981024;28;19916;-65
2022/11/16 16:58:43;;;;;;;;;;;;;;;;;;4980304;28;20019;-65
2022/11/16 17:01:09;;;;;;;;;;;;;;;;;;4982839;28;19929;-66
2022/11/16 17:03:36;;;;;;;;;;;;;;;;;;5000117;28;20335;-68
2022/11/16 17:06:04;;;;;;;;;;;;;;;;;;4981582;28;20467;-65
2022/11/16 17:08:29;;;;;;;;;;;;;;;;;;4980681;28;19925;-64
2022/11/16 17:10:57;;;;;;;;;;;;;;;;;;4965810;28;19921;-67
2022/11/16 17:13:22;;;;;;;;;;;;;;;;;;5001628;28;19924;-67
2022/11/16 17:15:48;;;;;;;;;;;;;;;;;;4983670;28;19929;-66
2022/11/16 17:18:13;;;;;;;;;;;;;;;;;;5000647;28;19917;-65
2022/11/16 17:20:39;;;;;;;;;;;;;;;;;;4977923;28;19936;-65
2022/11/16 17:26:20;;;;;;;;;;;;;;;;;;4999335;28;19928;-66
2022/11/16 17:28:46;;;;;;;;;;;;;;;;;;4982032;28;19921;-67